createdAt,value
2017-08-14T00:01:40.202Z,18.50
2017-08-14T00:04:06.602Z,18.50
2017-08-14T00:06:33.742Z,18.50
2017-08-14T00:09:00.887Z,18.50
2017-08-14T00:11:28.010Z,18.40
2017-08-14T00:13:54.474Z,18.30
2017-08-14T00:16:21.626Z,18.20
2017-08-14T00:18:48.775Z,18.20
2017-08-14T00:21:15.915Z,18.10
2017-08-14T00:23:43.066Z,18.10
2017-08-14T00:26:10.202Z,18.00
2017-08-14T00:28:36.609Z,18.00
2017-08-14T00:31:03.013Z,17.90
2017-08-14T00:33:29.411Z,17.80
2017-08-14T00:35:55.831Z,17.70
2017-08-14T00:38:22.227Z,17.80
2017-08-14T00:40:48.622Z,17.70
2017-08-14T00:43:15.758Z,17.60
2017-08-14T00:45:42.167Z,17.60
2017-08-14T00:48:08.605Z,17.60
2017-08-14T00:50:35.015Z,17.60
2017-08-14T00:53:01.499Z,17.50
2017-08-14T00:55:27.922Z,17.40
2017-08-14T00:57:54.338Z,17.50
2017-08-14T01:00:20.762Z,17.50
2017-08-14T01:02:47.177Z,17.40
2017-08-14T01:05:13.587Z,17.30
2017-08-14T01:07:39.989Z,17.20
2017-08-14T01:10:06.370Z,17.20
2017-08-14T01:12:32.786Z,17.10
2017-08-14T01:14:59.200Z,17.10
2017-08-14T01:17:26.334Z,16.90
2017-08-14T01:19:53.510Z,16.90
2017-08-14T01:22:19.947Z,16.90
2017-08-14T01:24:46.338Z,16.90
2017-08-14T01:27:12.768Z,16.90
2017-08-14T01:29:39.200Z,16.80
2017-08-14T01:32:05.607Z,16.70
2017-08-14T01:34:32.009Z,16.70
2017-08-14T01:36:58.401Z,16.60
2017-08-14T01:39:24.794Z,16.50
2017-08-14T01:41:51.179Z,16.50
2017-08-14T01:44:17.634Z,16.40
2017-08-14T01:46:44.025Z,16.40
2017-08-14T01:49:10.433Z,16.30
2017-08-14T01:51:36.835Z,16.30
2017-08-14T01:54:03.221Z,16.40
2017-08-14T01:56:32.950Z,16.40
2017-08-14T01:59:00.178Z,16.30
2017-08-14T02:01:26.602Z,16.30
2017-08-14T02:03:53.015Z,16.30
2017-08-14T02:06:19.425Z,16.10
2017-08-14T02:08:50.900Z,16.20
2017-08-14T02:11:17.298Z,16.10
2017-08-14T02:13:44.474Z,15.90
2017-08-14T02:16:10.869Z,15.90
2017-08-14T02:18:38.067Z,15.90
2017-08-14T02:21:04.479Z,15.90
2017-08-14T02:23:30.874Z,15.90
2017-08-14T02:25:57.266Z,15.90
2017-08-14T02:28:23.676Z,15.90
2017-08-14T02:30:50.131Z,16.00
2017-08-14T02:33:16.540Z,16.10
2017-08-14T02:35:42.914Z,16.30
2017-08-14T02:38:09.326Z,16.40
2017-08-14T02:40:35.760Z,16.30
2017-08-14T02:43:02.187Z,16.30
2017-08-14T02:45:28.606Z,16.40
2017-08-14T02:47:55.003Z,16.40
2017-08-14T02:50:21.411Z,16.40
2017-08-14T02:52:47.807Z,16.30
2017-08-14T02:55:14.246Z,16.40
2017-08-14T02:57:40.646Z,16.30
2017-08-14T03:02:31.086Z,16.30
2017-08-14T03:04:57.483Z,16.30
2017-08-14T03:07:23.934Z,16.40
2017-08-14T03:09:50.355Z,16.40
2017-08-14T03:12:17.507Z,16.30
2017-08-14T03:14:44.654Z,16.30
2017-08-14T03:17:11.809Z,16.20
2017-08-14T03:19:39.131Z,16.20
2017-08-14T03:22:05.506Z,16.10
2017-08-14T03:24:31.889Z,16.10
2017-08-14T03:26:58.293Z,16.10
2017-08-14T03:29:24.714Z,16.10
2017-08-14T03:31:51.110Z,16.30
2017-08-14T03:34:18.259Z,16.20
2017-08-14T03:36:45.419Z,16.20
2017-08-14T03:39:12.560Z,16.30
2017-08-14T03:41:38.971Z,16.30
2017-08-14T03:44:05.402Z,16.40
2017-08-14T03:46:31.806Z,16.30
2017-08-14T03:48:58.235Z,16.20
2017-08-14T03:51:24.669Z,16.10
2017-08-14T03:53:51.084Z,16.00
2017-08-14T03:56:17.498Z,16.00
2017-08-14T03:58:44.655Z,16.00
2017-08-14T04:01:11.093Z,16.00
2017-08-14T04:03:37.874Z,16.10
2017-08-14T04:06:04.313Z,16.10
2017-08-14T04:08:30.737Z,16.00
2017-08-14T04:10:57.122Z,16.00
2017-08-14T04:13:24.255Z,16.00
2017-08-14T04:15:50.662Z,16.00
2017-08-14T04:18:17.078Z,15.90
2017-08-14T04:20:48.060Z,15.90
2017-08-14T04:23:15.500Z,15.90
2017-08-14T04:25:42.286Z,16.00
2017-08-14T04:28:08.675Z,16.00
2017-08-14T04:30:35.079Z,16.10
2017-08-14T04:33:01.487Z,16.20
2017-08-14T04:35:27.909Z,16.20
2017-08-14T04:37:55.122Z,16.30
2017-08-14T04:40:21.522Z,16.30
2017-08-14T04:42:47.990Z,16.30
2017-08-14T04:45:14.431Z,16.20
2017-08-14T04:47:40.822Z,16.10
2017-08-14T04:50:07.239Z,16.10
2017-08-14T04:52:33.646Z,16.20
2017-08-14T04:55:00.799Z,16.30
2017-08-14T04:57:27.922Z,16.30
2017-08-14T04:59:54.331Z,16.30
2017-08-14T05:02:20.734Z,16.30
2017-08-14T05:04:47.342Z,16.30
2017-08-14T05:07:13.870Z,16.50
2017-08-14T05:09:40.275Z,16.60
2017-08-14T05:12:06.687Z,16.50
2017-08-14T05:14:33.082Z,16.60
2017-08-14T05:17:00.233Z,16.70
2017-08-14T05:19:27.374Z,16.80
2017-08-14T05:21:53.770Z,16.70
2017-08-14T05:24:20.162Z,16.80
2017-08-14T05:26:46.597Z,16.80
2017-08-14T05:29:13.014Z,16.90
2017-08-14T05:31:40.161Z,17.00
2017-08-14T05:34:07.282Z,17.00
2017-08-14T05:36:33.691Z,17.00
2017-08-14T05:39:00.116Z,17.10
2017-08-14T05:41:26.561Z,17.20
2017-08-14T05:43:53.275Z,17.30
2017-08-14T05:46:19.694Z,17.30
2017-08-14T05:48:46.094Z,17.30
2017-08-14T05:51:12.515Z,17.40
2017-08-14T05:53:38.906Z,17.50
2017-08-14T05:56:05.295Z,17.60
2017-08-14T05:58:31.722Z,17.60
2017-08-14T06:00:58.155Z,17.70
2017-08-14T06:03:24.566Z,17.80
2017-08-14T06:05:50.960Z,17.90
2017-08-14T06:08:17.383Z,18.00
2017-08-14T06:10:44.540Z,18.40
2017-08-14T06:13:12.019Z,18.40
2017-08-14T06:15:38.431Z,18.60
2017-08-14T06:18:05.216Z,18.80
2017-08-14T06:20:31.615Z,19.10
2017-08-14T06:22:58.026Z,19.50
2017-08-14T06:25:25.152Z,20.50
2017-08-14T06:27:51.558Z,20.40
2017-08-14T06:30:17.978Z,21.00
2017-08-14T06:32:51.494Z,21.50
2017-08-14T06:35:17.897Z,22.00
2017-08-14T06:37:44.295Z,22.40
2017-08-14T06:40:10.687Z,22.60
2017-08-14T06:42:37.086Z,23.20
2017-08-14T06:45:03.517Z,23.30
2017-08-14T06:47:29.952Z,23.50
2017-08-14T06:49:56.365Z,23.50
2017-08-14T06:52:23.505Z,23.60
2017-08-14T06:54:49.894Z,23.60
2017-08-14T06:57:16.292Z,23.60
2017-08-14T06:59:42.691Z,23.60
2017-08-14T07:02:09.095Z,23.40
2017-08-14T07:04:35.498Z,23.40
2017-08-14T07:07:01.895Z,23.20
2017-08-14T07:09:28.314Z,23.10
2017-08-14T07:11:54.714Z,23.20
2017-08-14T07:14:21.262Z,23.10
2017-08-14T07:16:47.630Z,23.00
2017-08-14T07:19:14.070Z,22.90
2017-08-14T07:21:40.493Z,22.90
2017-08-14T07:24:06.882Z,22.90
2017-08-14T07:26:33.282Z,22.80
2017-08-14T07:29:00.440Z,22.90
2017-08-14T07:31:26.845Z,22.90
2017-08-14T07:33:53.251Z,23.00
2017-08-14T07:36:19.662Z,23.20
2017-08-14T07:38:46.058Z,23.30
2017-08-14T07:41:13.235Z,23.50
2017-08-14T07:43:39.630Z,23.40
2017-08-14T07:46:06.772Z,23.60
2017-08-14T07:48:38.942Z,23.60
2017-08-14T07:51:05.347Z,23.60
2017-08-14T07:53:31.759Z,23.70
2017-08-14T07:55:58.173Z,23.70
2017-08-14T07:58:24.578Z,23.70
2017-08-14T08:00:51.753Z,23.80
2017-08-14T08:03:18.174Z,23.80
2017-08-14T08:05:44.596Z,23.80
2017-08-14T08:08:11.734Z,24.40
2017-08-14T08:10:38.154Z,24.40
2017-08-14T08:13:04.554Z,24.60
2017-08-14T08:15:30.950Z,24.70
2017-08-14T08:17:58.132Z,24.80
2017-08-14T08:20:24.538Z,24.80
2017-08-14T08:22:51.826Z,24.60
2017-08-14T08:25:18.242Z,24.60
2017-08-14T08:27:44.671Z,24.60
2017-08-14T08:30:11.097Z,24.60
2017-08-14T08:32:37.498Z,24.80
2017-08-14T08:35:03.887Z,25.00
2017-08-14T08:37:30.703Z,25.20
2017-08-14T08:39:57.114Z,25.10
2017-08-14T08:42:23.514Z,24.90
2017-08-14T08:44:49.935Z,24.60
2017-08-14T08:47:16.349Z,24.50
2017-08-14T08:49:42.726Z,24.80
2017-08-14T08:52:09.165Z,25.10
2017-08-14T08:54:35.594Z,25.20
2017-08-14T08:57:02.022Z,25.30
2017-08-14T08:59:28.410Z,25.30
2017-08-14T09:01:54.811Z,25.20
2017-08-14T09:04:21.215Z,25.20
2017-08-14T09:06:51.864Z,25.20
2017-08-14T09:09:18.259Z,25.10
2017-08-14T09:11:44.655Z,25.10
2017-08-14T09:14:11.852Z,25.30
2017-08-14T09:16:38.252Z,25.30
2017-08-14T09:19:04.639Z,25.50
2017-08-14T09:21:31.042Z,25.70
2017-08-14T09:23:57.446Z,25.80
2017-08-14T09:26:23.866Z,25.50
2017-08-14T09:28:50.993Z,25.70
2017-08-14T09:31:17.383Z,25.70
2017-08-14T09:33:43.798Z,25.70
2017-08-14T09:36:10.184Z,25.80
2017-08-14T09:38:36.602Z,25.80
2017-08-14T09:41:03.026Z,25.90
2017-08-14T09:43:29.431Z,25.70
2017-08-14T09:45:55.807Z,25.40
2017-08-14T09:48:22.203Z,25.20
2017-08-14T09:50:48.598Z,25.20
2017-08-14T09:53:15.746Z,25.30
2017-08-14T09:55:42.916Z,25.40
2017-08-14T09:58:10.074Z,25.20
2017-08-14T10:00:36.493Z,25.20
2017-08-14T10:03:03.638Z,25.30
2017-08-14T10:05:30.846Z,25.30
2017-08-14T10:07:57.238Z,25.30
2017-08-14T10:10:23.627Z,25.20
2017-08-14T10:12:50.039Z,25.20
2017-08-14T10:15:16.470Z,25.30
2017-08-14T10:17:45.563Z,25.20
2017-08-14T10:20:12.302Z,25.20
2017-08-14T10:22:38.726Z,25.10
2017-08-14T10:25:05.146Z,25.20
2017-08-14T10:27:31.568Z,25.20
2017-08-14T10:29:57.978Z,25.20
2017-08-14T10:32:24.380Z,25.30
2017-08-14T10:34:50.781Z,25.20
2017-08-14T10:37:17.186Z,25.30
2017-08-14T10:39:48.333Z,25.20
2017-08-14T10:42:14.767Z,25.20
2017-08-14T10:44:41.914Z,25.20
2017-08-14T10:47:09.063Z,25.00
2017-08-14T10:49:36.218Z,25.00
2017-08-14T10:52:12.439Z,25.20
2017-08-14T10:54:39.913Z,25.10
2017-08-14T10:57:06.310Z,25.20
2017-08-14T10:59:32.714Z,25.10
2017-08-14T11:01:59.110Z,25.00
2017-08-14T11:04:25.566Z,24.90
2017-08-14T11:06:51.998Z,24.90
2017-08-14T11:09:19.164Z,24.90
2017-08-14T11:11:45.576Z,24.90
2017-08-14T11:14:12.711Z,25.00
2017-08-14T11:16:39.114Z,25.00
2017-08-14T11:19:05.512Z,25.10
2017-08-14T11:21:31.923Z,25.20
2017-08-14T11:23:58.327Z,25.20
2017-08-14T11:26:24.712Z,25.40
2017-08-14T11:28:51.099Z,25.40
2017-08-14T11:31:17.502Z,25.60
2017-08-14T11:33:43.906Z,26.20
2017-08-14T11:36:11.047Z,26.50
2017-08-14T11:38:38.199Z,26.60
2017-08-14T11:41:05.335Z,26.40
2017-08-14T11:43:32.513Z,26.70
2017-08-14T11:45:58.916Z,26.70
2017-08-14T11:48:25.319Z,27.00
2017-08-14T11:50:51.736Z,27.00
2017-08-14T11:53:18.151Z,26.70
2017-08-14T11:55:44.546Z,26.50
2017-08-14T11:58:10.929Z,26.40
2017-08-14T12:00:37.363Z,26.20
2017-08-14T12:03:03.773Z,26.20
2017-08-14T12:05:30.204Z,26.10
2017-08-14T12:07:56.603Z,26.20
2017-08-14T12:10:23.010Z,26.40
2017-08-14T12:12:49.411Z,26.70
2017-08-14T12:15:15.791Z,27.10
2017-08-14T12:17:42.179Z,27.40
2017-08-14T12:20:08.618Z,27.60
2017-08-14T12:22:35.035Z,27.60
2017-08-14T12:25:01.491Z,27.30
2017-08-14T12:27:27.910Z,27.10
2017-08-14T12:29:54.330Z,27.00
2017-08-14T12:32:20.707Z,27.00
2017-08-14T12:34:47.106Z,26.90
2017-08-14T12:37:13.511Z,26.90
2017-08-14T12:39:40.626Z,27.00
2017-08-14T12:42:07.601Z,27.00
2017-08-14T12:44:34.601Z,26.80
2017-08-14T12:47:01.002Z,26.80
2017-08-14T12:49:27.395Z,27.00
2017-08-14T12:51:53.787Z,27.00
2017-08-14T12:54:20.183Z,27.10
2017-08-14T12:56:47.323Z,27.50
2017-08-14T12:59:14.459Z,27.50
2017-08-14T13:01:40.854Z,27.50
2017-08-14T13:04:11.875Z,27.50
2017-08-14T13:06:39.017Z,27.60
2017-08-14T13:09:05.435Z,27.60
2017-08-14T13:11:32.619Z,27.50
2017-08-14T13:13:59.023Z,27.50
2017-08-14T13:16:26.174Z,27.40
2017-08-14T13:18:53.319Z,27.40
2017-08-14T13:21:20.505Z,27.40
2017-08-14T13:23:46.898Z,27.30
2017-08-14T13:26:14.051Z,27.80
2017-08-14T13:28:45.266Z,27.90
2017-08-14T13:31:11.649Z,27.90
2017-08-14T13:33:38.087Z,28.00
2017-08-14T13:36:04.471Z,28.00
2017-08-14T13:38:30.846Z,27.90
2017-08-14T13:40:57.267Z,27.60
2017-08-14T13:43:24.434Z,27.40
2017-08-14T13:45:50.822Z,27.30
2017-08-14T13:48:17.222Z,27.30
2017-08-14T13:50:49.843Z,27.10
2017-08-14T13:53:16.239Z,27.10
2017-08-14T13:55:42.618Z,26.80
2017-08-14T13:58:09.006Z,26.80
2017-08-14T14:00:35.403Z,26.90
2017-08-14T14:03:02.759Z,26.80
2017-08-14T14:05:29.148Z,26.70
2017-08-14T14:07:55.561Z,26.70
2017-08-14T14:10:21.962Z,26.60
2017-08-14T14:12:48.376Z,26.60
2017-08-14T14:15:15.514Z,26.50
2017-08-14T14:17:45.135Z,26.50
2017-08-14T14:20:13.146Z,26.50
2017-08-14T14:22:39.533Z,26.50
2017-08-14T14:25:06.656Z,26.60
2017-08-14T14:27:33.074Z,26.60
2017-08-14T14:29:59.470Z,26.90
2017-08-14T14:32:25.887Z,27.30
2017-08-14T14:34:52.309Z,27.20
2017-08-14T14:37:19.471Z,27.00
2017-08-14T14:39:53.356Z,27.10
2017-08-14T14:42:19.754Z,27.10
2017-08-14T14:44:46.173Z,27.40
2017-08-14T14:47:12.583Z,27.50
2017-08-14T14:49:38.981Z,27.70
2017-08-14T14:52:05.371Z,27.80
2017-08-14T14:54:31.767Z,27.90
2017-08-14T14:56:58.938Z,28.10
2017-08-14T14:59:25.355Z,28.00
2017-08-14T15:01:52.895Z,28.10
2017-08-14T15:04:19.306Z,28.10
2017-08-14T15:06:45.721Z,28.20
2017-08-14T15:09:12.099Z,28.00
2017-08-14T15:11:38.557Z,27.90
2017-08-14T15:14:04.949Z,27.80
2017-08-14T15:16:31.358Z,27.70
2017-08-14T15:18:57.756Z,27.60
2017-08-14T15:21:24.139Z,27.40
2017-08-14T15:23:50.553Z,27.50
2017-08-14T15:26:16.940Z,27.40
2017-08-14T15:28:44.127Z,27.50
2017-08-14T15:31:10.637Z,27.50
2017-08-14T15:33:37.034Z,27.60
2017-08-14T15:36:03.431Z,27.60
2017-08-14T15:38:29.839Z,27.60
2017-08-14T15:40:56.218Z,27.70
2017-08-14T15:43:22.669Z,27.80
2017-08-14T15:45:49.153Z,27.80
2017-08-14T15:48:15.560Z,27.90
2017-08-14T15:50:42.722Z,28.00
2017-08-14T15:53:14.313Z,27.90
2017-08-14T15:55:40.718Z,27.50
2017-08-14T15:58:07.132Z,27.50
2017-08-14T16:00:34.322Z,27.40
2017-08-14T16:03:00.746Z,27.40
2017-08-14T16:05:27.135Z,27.40
2017-08-14T16:07:53.514Z,27.30
2017-08-14T16:10:19.895Z,27.40
2017-08-14T16:12:47.017Z,27.50
2017-08-14T16:15:13.415Z,27.50
2017-08-14T16:17:39.823Z,27.40
2017-08-14T16:20:08.000Z,27.20
2017-08-14T16:22:34.662Z,27.20
2017-08-14T16:25:01.106Z,27.20
2017-08-14T16:27:27.531Z,27.30
2017-08-14T16:29:53.918Z,27.30
2017-08-14T16:32:20.322Z,27.00
2017-08-14T16:34:46.738Z,26.90
2017-08-14T16:37:13.175Z,26.90
2017-08-14T16:39:54.479Z,26.90
2017-08-14T16:42:42.809Z,27.00
2017-08-14T16:45:09.211Z,27.10
2017-08-14T16:47:43.415Z,27.00
2017-08-14T16:50:25.487Z,27.00
2017-08-14T16:52:55.995Z,27.00
2017-08-14T16:55:23.394Z,27.00
2017-08-14T16:57:50.547Z,27.10
2017-08-14T17:00:22.702Z,27.00
2017-08-14T17:02:49.602Z,27.00
2017-08-14T17:05:16.020Z,26.90
2017-08-14T17:07:42.402Z,26.80
2017-08-14T17:10:08.806Z,26.90
2017-08-14T17:12:35.217Z,26.70
2017-08-14T17:15:03.455Z,26.80
2017-08-14T17:17:30.611Z,26.50
2017-08-14T17:19:57.799Z,26.40
2017-08-14T17:22:24.225Z,26.40
2017-08-14T17:24:50.606Z,26.40
2017-08-14T17:27:17.027Z,26.20
2017-08-14T17:29:43.443Z,26.20
2017-08-14T17:32:09.875Z,26.10
2017-08-14T17:34:36.278Z,26.20
2017-08-14T17:37:02.693Z,26.00
2017-08-14T17:39:29.886Z,25.80
2017-08-14T17:42:01.624Z,25.90
2017-08-14T17:44:28.018Z,25.90
2017-08-14T17:46:54.426Z,25.70
2017-08-14T17:49:20.839Z,25.60
2017-08-14T17:51:47.255Z,25.60
2017-08-14T17:54:13.643Z,25.60
2017-08-14T17:56:40.025Z,25.50
2017-08-14T17:59:06.731Z,25.40
2017-08-14T18:01:33.882Z,25.30
2017-08-14T18:04:00.299Z,25.30
2017-08-14T18:06:26.690Z,25.20
2017-08-14T18:08:53.119Z,25.10
2017-08-14T18:11:19.526Z,25.00
2017-08-14T18:13:46.686Z,24.80
2017-08-14T18:16:13.086Z,24.80
2017-08-14T18:18:39.490Z,24.70
2017-08-14T18:21:05.897Z,24.50
2017-08-14T18:23:32.293Z,24.40
2017-08-14T18:25:58.681Z,24.30
2017-08-14T18:28:25.110Z,24.20
2017-08-14T18:30:51.503Z,24.20
2017-08-14T18:33:18.665Z,23.90
2017-08-14T18:35:45.098Z,23.90
2017-08-14T18:38:11.515Z,23.80
2017-08-14T18:40:38.678Z,23.70
2017-08-14T18:43:05.170Z,23.70
2017-08-14T18:45:31.590Z,23.60
2017-08-14T18:47:58.011Z,23.50
2017-08-14T18:50:24.423Z,23.40
2017-08-14T18:52:50.826Z,23.30
2017-08-14T18:55:17.514Z,23.20
2017-08-14T18:57:43.934Z,23.30
2017-08-14T19:00:10.314Z,23.20
2017-08-14T19:02:36.744Z,23.10
2017-08-14T19:05:03.130Z,23.00
2017-08-14T19:07:29.967Z,22.80
2017-08-14T19:09:56.466Z,22.70
2017-08-14T19:12:22.462Z,22.70
2017-08-14T19:14:48.866Z,22.60
2017-08-14T19:17:15.315Z,22.60
2017-08-14T19:19:41.727Z,22.60
2017-08-14T19:22:08.134Z,22.60
2017-08-14T19:24:35.272Z,22.60
2017-08-14T19:27:01.682Z,22.60
2017-08-14T19:29:28.078Z,22.60
2017-08-14T19:31:54.464Z,22.50
2017-08-14T19:34:20.868Z,22.50
2017-08-14T19:36:47.288Z,22.60
2017-08-14T19:39:13.723Z,22.60
2017-08-14T19:41:40.131Z,22.60
2017-08-14T19:44:06.550Z,22.50
2017-08-14T19:46:33.694Z,22.50
2017-08-14T19:49:00.850Z,22.40
2017-08-14T19:51:28.019Z,22.40
2017-08-14T19:53:54.419Z,22.40
2017-08-14T19:56:20.857Z,22.30
2017-08-14T19:58:48.023Z,22.30
2017-08-14T20:01:14.418Z,22.30
2017-08-14T20:03:40.862Z,22.30
2017-08-14T20:06:07.302Z,22.20
2017-08-14T20:08:33.746Z,22.20
2017-08-14T20:11:00.895Z,22.00
2017-08-14T20:13:28.030Z,21.90
2017-08-14T20:15:54.442Z,21.90
2017-08-14T20:18:20.866Z,22.00
2017-08-14T20:20:47.274Z,22.00
2017-08-14T20:23:13.697Z,22.00
2017-08-14T20:25:40.123Z,22.00
2017-08-14T20:28:06.513Z,21.80
2017-08-14T20:30:32.959Z,21.80
2017-08-14T20:32:59.351Z,21.80
2017-08-14T20:35:25.734Z,21.80
2017-08-14T20:37:52.900Z,21.70
2017-08-14T20:40:20.058Z,21.70
2017-08-14T20:42:46.442Z,21.70
2017-08-14T20:45:12.875Z,21.70
2017-08-14T20:47:39.282Z,21.70
2017-08-14T20:50:05.708Z,21.60
2017-08-14T20:52:32.074Z,21.70
2017-08-14T20:54:58.478Z,21.70
2017-08-14T20:57:24.868Z,21.70
2017-08-14T20:59:52.028Z,21.70
2017-08-14T21:02:18.451Z,21.70
2017-08-14T21:04:45.619Z,21.50
2017-08-14T21:07:12.030Z,21.50
2017-08-14T21:09:39.154Z,21.20
2017-08-14T21:12:05.621Z,21.20
2017-08-14T21:14:32.765Z,21.10
2017-08-14T21:16:59.903Z,21.10
2017-08-14T21:19:27.110Z,21.00
2017-08-14T21:21:55.246Z,20.90
2017-08-14T21:24:22.394Z,20.90
2017-08-14T21:26:49.539Z,20.90
2017-08-14T21:29:16.695Z,20.70
2017-08-14T21:31:43.111Z,20.70
2017-08-14T21:34:09.505Z,20.70
2017-08-14T21:36:35.891Z,20.60
2017-08-14T21:39:03.107Z,20.50
2017-08-14T21:41:29.536Z,20.50
2017-08-14T21:43:55.956Z,20.60
2017-08-14T21:46:22.379Z,20.50
2017-08-14T21:48:51.651Z,20.50
2017-08-14T21:51:19.811Z,20.50
2017-08-14T21:53:46.948Z,20.40
2017-08-14T21:56:13.344Z,20.30
2017-08-14T21:58:39.740Z,20.40
2017-08-14T22:01:06.152Z,20.30
2017-08-14T22:03:33.359Z,20.20
2017-08-14T22:05:59.787Z,20.20
2017-08-14T22:08:26.203Z,20.30
2017-08-14T22:10:52.614Z,20.20
2017-08-14T22:13:19.772Z,20.00
2017-08-14T22:15:46.174Z,20.00
2017-08-14T22:18:12.583Z,20.00
2017-08-14T22:20:39.029Z,20.00
2017-08-14T22:23:08.844Z,20.20
2017-08-14T22:25:35.256Z,20.20
2017-08-14T22:28:02.831Z,20.20
2017-08-14T22:30:29.207Z,20.00
2017-08-14T22:33:00.643Z,20.00
2017-08-14T22:35:27.794Z,20.00
2017-08-14T22:37:54.930Z,19.90
2017-08-14T22:40:21.335Z,19.90
2017-08-14T22:42:47.752Z,19.90
2017-08-14T22:45:14.142Z,20.00
2017-08-14T22:47:41.331Z,20.10
2017-08-14T22:50:16.804Z,20.10
2017-08-14T22:52:44.231Z,20.10
2017-08-14T22:55:10.642Z,20.10
2017-08-14T22:57:37.048Z,20.10
2017-08-14T23:00:04.206Z,20.20
2017-08-14T23:02:31.368Z,20.10
2017-08-14T23:04:57.770Z,20.10
2017-08-14T23:07:24.325Z,20.10
2017-08-14T23:09:51.471Z,20.00
2017-08-14T23:12:18.623Z,20.00
2017-08-14T23:14:51.386Z,20.00
2017-08-14T23:17:17.786Z,20.00
2017-08-14T23:19:44.204Z,19.90
2017-08-14T23:22:10.616Z,19.90
2017-08-14T23:24:37.774Z,19.80
2017-08-14T23:27:04.155Z,19.70
2017-08-14T23:29:30.558Z,19.70
2017-08-14T23:31:56.986Z,19.70
2017-08-14T23:34:23.361Z,19.60
2017-08-14T23:36:49.734Z,19.50
2017-08-14T23:39:16.146Z,19.50
2017-08-14T23:41:43.303Z,19.20
2017-08-14T23:44:10.438Z,19.10
2017-08-14T23:46:36.830Z,19.00
2017-08-14T23:49:03.229Z,18.90
2017-08-14T23:51:29.625Z,18.70
2017-08-14T23:53:56.056Z,18.70
2017-08-14T23:56:22.462Z,18.70
2017-08-14T23:58:48.858Z,18.50
